Time;durP1;ratioP1;P1;durP2;ratioP2;P2;SDS_P1;SDS_P2;PMS_P1;PMS_P2;Temp;Humidity;BMP_temperature;BMP_pressure;BME280_temperature;BME280_humidity;BME280_pressure;Samples;Min_cycle;Max_cycle;Signal;HPM_P1;HPM_P2
2021/05/24 00:00:30;;;;;;;2.58;0.80;;;;;;;19.38;36.84;100805.38;4144079;28;20400;-55
2021/05/24 00:02:30;;;;;;;1.17;0.85;;;;;;;19.33;36.90;100791.53;4144634;28;20101;-52
2021/05/24 00:04:31;;;;;;;1.73;0.65;;;;;;;19.39;36.90;100784.03;4143759;28;20038;-57
2021/05/24 00:06:31;;;;;;;1.10;0.73;;;;;;;19.33;36.67;100782.38;4133821;28;20092;-54
2021/05/24 00:08:32;;;;;;;1.25;0.93;;;;;;;19.24;37.27;100785.72;4141387;28;20481;-57
2021/05/24 00:10:36;;;;;;;1.83;0.90;;;;;;;19.16;37.25;100783.53;4144122;28;20045;-57
2021/05/24 00:12:37;;;;;;;3.95;1.15;;;;;;;19.21;37.19;100779.91;4148982;28;20172;-54
2021/05/24 00:14:39;;;;;;;1.13;0.93;;;;;;;19.20;37.10;100781.03;4147069;28;20645;-55
2021/05/24 00:16:39;;;;;;;2.50;0.70;;;;;;;19.17;37.05;100781.59;4139158;28;20037;-52
2021/05/24 00:18:40;;;;;;;1.50;0.90;;;;;;;19.23;36.95;100769.34;4143150;28;20038;-53
2021/05/24 00:20:47;;;;;;;2.08;0.80;;;;;;;19.09;37.35;100771.91;4143786;28;20072;-55
2021/05/24 00:22:48;;;;;;;1.02;0.70;;;;;;;19.04;37.19;100775.50;4145650;28;20175;-54
2021/05/24 00:24:48;;;;;;;1.27;0.77;;;;;;;19.19;36.93;100771.88;4143326;28;20065;-53
2021/05/24 00:26:49;;;;;;;1.08;0.70;;;;;;;19.09;37.06;100768.31;4141865;28;20508;-54
2021/05/24 00:28:49;;;;;;;1.70;0.88;;;;;;;19.04;37.05;100767.16;4143851;28;20045;-54
2021/05/24 00:30:50;;;;;;;3.40;1.02;;;;;;;18.99;37.21;100760.81;4142075;28;20077;-56
2021/05/24 00:32:50;;;;;;;1.15;0.93;;;;;;;19.09;37.00;100763.56;4135941;28;20515;-53
2021/05/24 00:34:51;;;;;;;0.80;0.75;;;;;;;19.21;37.04;100750.22;4145418;28;20598;-56
2021/05/24 00:36:52;;;;;;;1.35;0.80;;;;;;;19.11;36.81;100747.50;4154487;28;20040;-55
2021/05/24 00:38:53;;;;;;;1.23;0.63;;;;;;;18.85;37.23;100744.75;4146132;28;20045;-53
2021/05/24 00:40:53;;;;;;;7.13;1.27;;;;;;;18.75;37.58;100757.81;4145309;28;20026;-58
2021/05/24 00:42:55;;;;;;;1.73;0.90;;;;;;;18.63;37.75;100749.78;4138893;28;20052;-56
2021/05/24 00:44:56;;;;;;;1.08;0.77;;;;;;;18.55;37.76;100740.09;4142323;28;20034;-54
2021/05/24 00:46:56;;;;;;;0.75;0.60;;;;;;;18.63;37.69;100742.34;4149810;28;20515;-56
2021/05/24 00:48:57;;;;;;;1.70;0.90;;;;;;;18.89;37.35;100745.88;4143558;28;20814;-55
2021/05/24 00:50:58;;;;;;;6.30;0.90;;;;;;;18.74;37.33;100754.22;4156824;28;20052;-55
2021/05/24 00:52:59;;;;;;;1.23;1.08;;;;;;;18.45;37.85;100743.72;4146900;28;20041;-53
2021/05/24 00:54:59;;;;;;;1.65;0.80;;;;;;;18.49;37.71;100714.34;4142418;28;20539;-53
2021/05/24 00:57:00;;;;;;;0.77;0.55;;;;;;;18.95;37.02;100745.84;4143652;28;20030;-55
2021/05/24 00:59:00;;;;;;;1.17;0.90;;;;;;;18.73;37.33;100741.47;4144732;28;20507;-54
2021/05/24 01:03:58;;;;;;;2.40;0.80;;;;;;;18.93;37.18;100725.91;4134683;28;20056;-54
2021/05/24 01:05:59;;;;;;;1.55;0.80;;;;;;;18.24;38.35;100722.66;4144298;28;20041;-54
2021/05/24 01:07:59;;;;;;;2.83;0.75;;;;;;;18.31;38.33;100724.06;4143166;28;20099;-53
2021/05/24 01:10:00;;;;;;;1.70;0.90;;;;;;;18.16;38.40;100708.25;4150386;28;20030;-54
2021/05/24 01:12:00;;;;;;;0.73;0.70;;;;;;;18.59;37.49;100709.91;4146705;28;20041;-54
2021/05/24 01:14:01;;;;;;;0.85;0.80;;;;;;;18.59;37.55;100716.28;4143289;28;20519;-55
2021/05/24 01:16:02;;;;;;;0.60;0.60;;;;;;;18.68;37.48;100722.09;4143166;28;20030;-54
2021/05/24 01:18:03;;;;;;;1.85;0.70;;;;;;;18.22;38.43;100719.34;4135920;28;20144;-52
2021/05/24 01:20:05;;;;;;;0.82;0.82;;;;;;;18.38;37.84;100732.09;4142086;28;20023;-52
2021/05/24 01:22:09;;;;;;;1.48;0.80;;;;;;;18.15;38.45;100731.53;4141759;28;20033;-55
2021/05/24 01:24:10;;;;;;;1.27;0.80;;;;;;;17.92;38.86;100738.44;4143547;28;20030;-54
2021/05/24 01:26:12;;;;;;;1.00;0.80;;;;;;;17.92;38.84;100719.06;4134889;28;20034;-52
2021/05/24 01:28:14;;;;;;;1.48;0.85;;;;;;;17.71;39.33;100718.19;4156808;28;20033;-54
2021/05/24 01:30:15;;;;;;;0.70;0.68;;;;;;;17.94;38.91;100716.84;4142670;28;20566;-55
2021/05/24 01:34:26;;;;;;;1.40;0.82;;;;;;;17.72;39.35;100708.78;4261954;22;20467;-48
2021/05/24 01:36:27;;;;;;;0.70;0.70;;;;;;;17.98;38.90;100698.56;4158641;28;20085;-47
2021/05/24 01:38:27;;;;;;;1.92;0.60;;;;;;;17.93;38.92;100694.97;4158954;28;20426;-47
2021/05/24 01:40:28;;;;;;;1.42;0.82;;;;;;;17.91;38.74;100695.22;4158609;28;20069;-47
2021/05/24 01:42:28;;;;;;;0.73;0.57;;;;;;;17.82;39.14;100702.44;4158553;28;20057;-49
2021/05/24 01:44:40;;;;;;;3.42;1.02;;;;;;;17.69;39.36;100709.34;4173202;28;20064;-48
2021/05/24 01:46:41;;;;;;;0.98;0.88;;;;;;;17.80;39.25;100705.47;4158677;28;20057;-48
2021/05/24 01:48:41;;;;;;;1.33;0.73;;;;;;;17.62;39.53;100683.84;4159715;28;20533;-49
2021/05/24 01:50:42;;;;;;;2.83;0.98;;;;;;;17.85;39.20;100660.34;4159932;28;20554;-48
2021/05/24 01:52:43;;;;;;;1.05;0.70;;;;;;;18.16;38.55;100661.16;4157499;28;20025;-46
2021/05/24 01:54:46;;;;;;;1.65;0.60;;;;;;;18.07;38.52;100662.00;4161202;28;20135;-48
2021/05/24 01:56:46;;;;;;;1.98;0.93;;;;;;;18.25;38.17;100666.97;4159872;28;20018;-46
2021/05/24 01:58:47;;;;;;;1.73;0.90;;;;;;;18.07;38.69;100670.31;4157566;28;20084;-47
2021/05/24 02:00:47;;;;;;;0.98;0.77;;;;;;;17.76;39.18;100665.59;4163375;28;20025;-49
2021/05/24 02:02:49;;;;;;;0.75;0.50;;;;;;;18.00;38.46;100670.59;4156850;28;20110;-47
2021/05/24 02:04:49;;;;;;;1.48;0.75;;;;;;;18.29;37.94;100661.69;4157547;28;20521;-46
2021/05/24 02:06:50;;;;;;;1.00;0.70;;;;;;;18.06;38.39;100671.41;4158790;28;20025;-49
2021/05/24 02:08:50;;;;;;;1.35;0.63;;;;;;;18.03;38.54;100660.88;4154533;28;20488;-48
2021/05/24 02:10:51;;;;;;;0.93;0.88;;;;;;;18.46;37.65;100662.25;4155496;28;20060;-46
2021/05/24 02:12:52;;;;;;;1.48;0.73;;;;;;;18.37;37.61;100669.47;4157740;28;20522;-47
2021/05/24 02:14:53;;;;;;;1.60;0.85;;;;;;;18.31;37.94;100659.53;4157507;28;20026;-46
2021/05/24 02:16:54;;;;;;;0.40;0.40;;;;;;;18.16;38.18;100658.38;4152692;28;20068;-50
2021/05/24 02:18:54;;;;;;;0.50;0.50;;;;;;;18.37;37.79;100663.94;4157189;28;20479;-44
2021/05/24 02:20:55;;;;;;;0.90;0.70;;;;;;;18.56;37.49;100657.81;4158776;28;20041;-45
2021/05/24 02:22:57;;;;;;;0.98;0.70;;;;;;;18.39;37.77;100667.25;4157206;28;20468;-44
2021/05/24 02:24:57;;;;;;;2.03;0.80;;;;;;;18.06;38.30;100661.19;4157252;28;20440;-49
2021/05/24 02:26:57;;;;;;;1.42;0.65;;;;;;;18.41;37.92;100662.25;4158472;28;20041;-48
2021/05/24 02:28:58;;;;;;;0.80;0.40;;;;;;;18.43;37.49;100642.56;4156065;28;20479;-45
2021/05/24 02:30:58;;;;;;;1.95;0.60;;;;;;;18.49;37.42;100645.06;4157720;28;20064;-44
2021/05/24 02:32:59;;;;;;;1.45;0.90;;;;;;;18.41;37.60;100655.88;4167175;28;20041;-46
2021/05/24 02:35:00;;;;;;;1.10;0.75;;;;;;;18.16;38.22;100655.59;4170347;28;20044;-45
2021/05/24 02:37:00;;;;;;;1.35;0.80;;;;;;;17.91;38.74;100650.09;4181346;28;20616;-46
2021/05/24 02:39:06;;;;;;;1.27;0.93;;;;;;;18.04;38.59;100646.75;4174958;28;20076;-47
2021/05/24 02:41:06;;;;;;;0.70;0.70;;;;;;;18.00;38.66;100642.91;4177502;28;20120;-49
2021/05/24 02:43:07;;;;;;;2.10;1.02;;;;;;;17.91;38.54;100626.00;4179390;28;20025;-47
2021/05/24 02:45:09;;;;;;;1.10;0.60;;;;;;;18.07;38.24;100637.06;4175077;28;20065;-47
2021/05/24 02:47:10;;;;;;;1.80;0.70;;;;;;;17.97;38.44;100635.97;4176468;28;20040;-49
2021/05/24 02:49:10;;;;;;;1.13;1.02;;;;;;;17.96;38.54;100639.03;4174575;28;20037;-46
2021/05/24 02:51:11;;;;;;;0.93;0.73;;;;;;;17.92;38.66;100651.75;4176504;28;20035;-45
2021/05/24 02:53:11;;;;;;;1.15;0.80;;;;;;;17.49;39.70;100652.00;4175441;28;20051;-46
2021/05/24 02:55:12;;;;;;;1.08;0.77;;;;;;;17.97;38.80;100660.06;4176222;28;20120;-48
2021/05/24 02:57:12;;;;;;;0.95;0.80;;;;;;;18.06;38.27;100658.41;4180311;28;20427;-47
2021/05/24 02:59:13;;;;;;;0.75;0.52;;;;;;;17.75;39.07;100663.94;4176834;28;20039;-47
2021/05/24 03:01:14;;;;;;;1.20;0.85;;;;;;;17.77;39.26;100658.13;4180994;28;20111;-47
2021/05/24 03:03:14;;;;;;;1.90;0.70;;;;;;;17.90;38.66;100656.75;4173284;28;20107;-50
2021/05/24 03:05:20;;;;;;;2.55;0.80;;;;;;;17.39;39.78;100650.00;4159499;28;20025;-49
2021/05/24 03:07:21;;;;;;;1.17;0.80;;;;;;;17.76;39.13;100639.84;4176777;28;20064;-47
2021/05/24 03:09:22;;;;;;;1.75;0.70;;;;;;;17.59;39.34;100645.66;4172556;28;20025;-49
2021/05/24 03:11:22;;;;;;;2.10;0.65;;;;;;;17.38;39.92;100634.53;4178267;28;20109;-47
2021/05/24 03:13:25;;;;;;;0.95;0.70;;;;;;;17.41;39.91;100628.47;4175601;28;20029;-48
2021/05/24 03:15:26;;;;;;;1.40;0.60;;;;;;;17.41;40.01;100636.75;4175437;28;20032;-48
2021/05/24 03:17:26;;;;;;;1.83;0.90;;;;;;;17.47;39.99;100629.28;4176092;28;20041;-48
2021/05/24 03:19:27;;;;;;;1.92;0.80;;;;;;;17.60;39.80;100622.41;4174674;28;20115;-47
2021/05/24 03:21:27;;;;;;;0.98;0.77;;;;;;;17.38;40.31;100623.47;4180009;28;20035;-49
2021/05/24 03:23:28;;;;;;;1.13;0.80;;;;;;;17.30;40.28;100624.00;4175411;28;20025;-50
2021/05/24 03:25:28;;;;;;;0.80;0.80;;;;;;;17.22;40.69;100624.53;4171778;28;20029;-46
2021/05/24 03:27:28;;;;;;;0.88;0.82;;;;;;;17.27;40.52;100616.25;4176165;28;20037;-50
2021/05/24 03:29:29;;;;;;;1.40;0.90;;;;;;;17.26;40.54;100617.38;4175630;28;20128;-46
2021/05/24 03:31:30;;;;;;;1.13;0.90;;;;;;;17.39;40.22;100621.53;4176401;28;20509;-48
2021/05/24 03:33:30;;;;;;;1.15;0.88;;;;;;;17.24;40.75;100617.63;4183536;28;20140;-47
2021/05/24 03:35:31;;;;;;;1.38;0.90;;;;;;;17.08;41.00;100618.69;4175191;28;20037;-49
2021/05/24 03:37:31;;;;;;;0.85;0.82;;;;;;;17.24;40.64;100616.78;4181410;28;20041;-49
2021/05/24 03:39:32;;;;;;;0.60;0.60;;;;;;;17.04;41.00;100618.41;4186301;28;20367;-50
2021/05/24 03:41:32;;;;;;;1.05;0.95;;;;;;;17.19;40.68;100619.56;4177965;28;20037;-48
2021/05/24 03:43:33;;;;;;;1.27;0.82;;;;;;;17.16;40.84;100611.78;4183828;28;20128;-50
2021/05/24 03:45:35;;;;;;;2.13;0.73;;;;;;;17.69;39.45;100619.91;4178966;28;20041;-48
2021/05/24 03:47:36;;;;;;;1.33;0.70;;;;;;;17.48;39.85;100616.28;4178689;28;20506;-47
2021/05/24 03:49:36;;;;;;;1.45;0.90;;;;;;;17.46;39.89;100603.56;4178135;28;20112;-48
2021/05/24 03:51:37;;;;;;;0.90;0.82;;;;;;;17.45;39.90;100612.13;4176141;28;20402;-48
2021/05/24 03:53:37;;;;;;;0.90;0.88;;;;;;;17.74;39.17;100611.63;4179232;28;20033;-50
2021/05/24 03:55:38;;;;;;;4.43;1.20;;;;;;;17.76;39.19;100613.00;4178685;28;20044;-50
2021/05/24 03:57:38;;;;;;;0.75;0.68;;;;;;;17.36;40.04;100611.00;4177484;28;20025;-51
2021/05/24 03:59:40;;;;;;;0.65;0.65;;;;;;;17.80;39.08;100610.53;4179674;28;20029;-50
2021/05/24 04:01:40;;;;;;;1.00;0.82;;;;;;;17.48;39.86;100614.34;4174939;28;20474;-50
2021/05/24 04:03:41;;;;;;;0.80;0.80;;;;;;;17.63;39.31;100608.03;4181274;28;20032;-48
2021/05/24 04:05:42;;;;;;;1.95;1.10;;;;;;;17.69;39.23;100608.84;4179656;28;20056;-50
2021/05/24 04:07:48;;;;;;;0.80;0.80;;;;;;;17.66;38.97;100601.94;4174925;28;20496;-50
2021/05/24 04:09:49;;;;;;;1.38;0.90;;;;;;;17.78;38.88;100613.56;4178945;28;20033;-48
2021/05/24 04:11:49;;;;;;;1.20;0.68;;;;;;;17.48;39.68;100608.00;4176515;28;20032;-46
2021/05/24 04:13:53;;;;;;;0.68;0.63;;;;;;;17.76;38.87;100610.22;4176095;28;20035;-48
2021/05/24 04:15:56;;;;;;;1.00;0.98;;;;;;;17.60;39.49;100611.34;4185199;28;20044;-46
2021/05/24 04:17:59;;;;;;;1.00;0.80;;;;;;;17.42;39.63;100602.44;4171104;28;20033;-48
2021/05/24 04:20:00;;;;;;;1.27;0.70;;;;;;;17.55;39.47;100609.41;4178193;28;20040;-50
2021/05/24 04:22:00;;;;;;;1.67;0.93;;;;;;;17.50;39.47;100598.31;4179875;28;20513;-47
2021/05/24 04:24:01;;;;;;;0.65;0.60;;;;;;;17.38;39.78;100604.09;4178176;28;20033;-50
2021/05/24 04:26:01;;;;;;;0.68;0.65;;;;;;;17.57;39.29;100603.59;4178858;28;20098;-50
2021/05/24 04:28:02;;;;;;;0.75;0.60;;;;;;;17.38;39.80;100609.63;4177263;28;20067;-49
2021/05/24 04:30:07;;;;;;;1.48;0.95;;;;;;;17.41;39.75;100602.69;4178708;28;20036;-46
2021/05/24 04:32:08;;;;;;;0.93;0.93;;;;;;;17.35;39.86;100607.41;4160217;28;20043;-47
2021/05/24 04:34:08;;;;;;;0.60;0.60;;;;;;;17.27;40.11;100599.63;4180448;28;20123;-46
2021/05/24 04:36:09;;;;;;;0.70;0.50;;;;;;;17.56;39.49;100593.63;4180292;28;20032;-45
2021/05/24 04:38:09;;;;;;;0.60;0.60;;;;;;;17.52;39.47;100589.75;4178628;28;20045;-45
2021/05/24 04:40:10;;;;;;;0.70;0.70;;;;;;;17.40;39.90;100595.53;4178065;28;20033;-46
2021/05/24 04:42:12;;;;;;;0.82;0.60;;;;;;;17.44;39.64;100599.38;4179336;28;20041;-47
2021/05/24 04:44:19;;;;;;;0.52;0.50;;;;;;;17.35;39.99;100592.75;4177997;28;20029;-49
2021/05/24 04:46:20;;;;;;;1.15;1.05;;;;;;;17.46;39.65;100588.91;4176602;28;20037;-48
2021/05/24 04:48:20;;;;;;;2.85;0.60;;;;;;;17.29;40.08;100583.63;4181779;28;20040;-47
2021/05/24 04:50:21;;;;;;;1.25;0.70;;;;;;;17.19;40.22;100589.13;4177452;28;20080;-47
2021/05/24 04:52:21;;;;;;;0.88;0.57;;;;;;;17.34;40.00;100586.38;4187168;28;20796;-47
2021/05/24 04:54:22;;;;;;;1.05;0.50;;;;;;;17.49;39.84;100587.50;4166508;28;20570;-46
2021/05/24 04:56:22;;;;;;;0.50;0.50;;;;;;;17.27;40.42;100585.81;4176901;28;20029;-49
2021/05/24 04:58:22;;;;;;;1.77;0.93;;;;;;;17.04;40.87;100579.69;4177253;28;20405;-49
2021/05/24 05:00:23;;;;;;;1.27;0.80;;;;;;;17.20;40.64;100579.72;4175191;28;20106;-45
2021/05/24 05:02:24;;;;;;;0.77;0.65;;;;;;;17.32;40.20;100580.31;4177519;28;20210;-45
2021/05/24 05:04:24;;;;;;;0.80;0.80;;;;;;;17.28;40.31;100576.41;4178002;28;20041;-44
2021/05/24 05:06:25;;;;;;;0.85;0.55;;;;;;;17.23;40.37;100584.72;4177414;28;20750;-45
2021/05/24 05:08:25;;;;;;;1.15;0.70;;;;;;;17.60;39.63;100583.66;4177750;28;20063;-47
2021/05/24 05:10:25;;;;;;;1.80;0.80;;;;;;;17.45;39.96;100593.56;4178142;28;20028;-44
2021/05/24 05:12:26;;;;;;;1.63;1.08;;;;;;;17.37;40.00;100585.00;4175299;28;20040;-46
2021/05/24 05:14:26;;;;;;;0.77;0.50;;;;;;;17.58;39.72;100574.78;4178892;28;20109;-44
2021/05/24 05:16:27;;;;;;;0.77;0.60;;;;;;;17.40;40.08;100578.94;4174971;28;20040;-44
2021/05/24 05:18:27;;;;;;;0.75;0.50;;;;;;;17.37;40.08;100574.75;4180899;28;20033;-47
2021/05/24 05:20:28;;;;;;;1.38;0.70;;;;;;;17.36;40.08;100577.81;4178902;28;20029;-45
2021/05/24 05:22:28;;;;;;;1.45;0.80;;;;;;;17.30;40.21;100579.72;4178605;28;20041;-44
2021/05/24 05:24:29;;;;;;;2.22;0.60;;;;;;;17.05;40.57;100581.38;4177813;28;20074;-44
2021/05/24 05:26:29;;;;;;;1.40;0.52;;;;;;;17.08;40.62;100575.28;4158741;28;20041;-44
2021/05/24 05:28:30;;;;;;;0.60;0.60;;;;;;;17.08;40.85;100583.56;4176585;28;20032;-46
2021/05/24 05:30:30;;;;;;;0.75;0.57;;;;;;;17.42;39.95;100583.06;4182301;28;20430;-47
2021/05/24 05:32:31;;;;;;;0.55;0.55;;;;;;;17.09;40.74;100582.47;4176680;28;20443;-48
2021/05/24 05:34:31;;;;;;;1.15;0.55;;;;;;;17.20;40.52;100575.03;4178646;28;20411;-50
2021/05/24 05:36:33;;;;;;;2.05;0.50;;;;;;;17.21;40.42;100575.84;4176544;28;20435;-49
2021/05/24 05:38:34;;;;;;;0.85;0.40;;;;;;;17.11;40.80;100582.19;4177232;28;20052;-49
2021/05/24 05:40:34;;;;;;;0.77;0.60;;;;;;;16.97;40.98;100581.06;4177564;28;20040;-47
2021/05/24 05:42:35;;;;;;;0.63;0.60;;;;;;;17.06;40.81;100569.19;4175525;28;20033;-48
2021/05/24 05:44:35;;;;;;;0.40;0.40;;;;;;;16.90;41.19;100571.09;4180867;28;20447;-48
2021/05/24 05:46:36;;;;;;;1.60;0.50;;;;;;;17.25;40.37;100571.44;4176504;28;20037;-45
2021/05/24 05:48:36;;;;;;;1.10;0.60;;;;;;;17.18;40.57;100570.84;4179271;28;20131;-46
2021/05/24 05:50:36;;;;;;;2.28;0.47;;;;;;;17.06;41.11;100568.38;4183513;28;20102;-48
2021/05/24 05:52:37;;;;;;;0.95;0.40;;;;;;;16.84;41.26;100571.38;4176631;28;20126;-49
2021/05/24 05:54:38;;;;;;;1.02;0.57;;;;;;;16.75;41.63;100571.88;4181378;28;20021;-49
2021/05/24 05:56:38;;;;;;;0.73;0.32;;;;;;;17.04;41.10;100582.47;4177940;28;20653;-48
2021/05/24 05:58:38;;;;;;;0.65;0.65;;;;;;;17.11;40.84;100579.44;4175214;28;20033;-46
2021/05/24 06:00:39;;;;;;;2.10;0.70;;;;;;;16.79;41.63;100574.94;4175608;28;20513;-46
2021/05/24 06:02:39;;;;;;;0.93;0.40;;;;;;;16.75;41.81;100582.09;4184493;28;20501;-47
2021/05/24 06:04:40;;;;;;;0.50;0.32;;;;;;;17.10;40.87;100586.91;4175623;28;20029;-46
2021/05/24 06:06:40;;;;;;;0.65;0.38;;;;;;;16.86;41.38;100585.75;4176631;28;20048;-48
2021/05/24 06:08:41;;;;;;;2.55;0.70;;;;;;;17.20;40.70;100588.03;4166006;28;20524;-46
2021/05/24 06:10:41;;;;;;;0.30;0.30;;;;;;;17.07;40.96;100583.88;4176657;28;20025;-44
2021/05/24 06:12:43;;;;;;;0.50;0.45;;;;;;;16.75;41.61;100584.88;4177487;28;20028;-46
2021/05/24 06:14:43;;;;;;;0.80;0.43;;;;;;;16.64;42.09;100588.69;4178463;28;20115;-46
2021/05/24 06:16:46;;;;;;;1.85;0.70;;;;;;;16.80;41.98;100586.81;4173478;28;20037;-45
2021/05/24 06:18:46;;;;;;;0.98;0.70;;;;;;;16.76;41.86;100586.53;4184009;28;20579;-48
2021/05/24 06:20:47;;;;;;;0.75;0.40;;;;;;;16.55;42.29;100588.34;4175831;28;20036;-48
2021/05/24 06:22:47;;;;;;;2.85;0.30;;;;;;;16.73;41.74;100590.66;4179279;28;20108;-46
2021/05/24 06:24:48;;;;;;;2.08;0.38;;;;;;;16.59;42.13;100592.25;4181925;28;20040;-45
2021/05/24 06:26:48;;;;;;;0.90;0.60;;;;;;;16.96;41.32;100594.06;4175730;28;20590;-48
2021/05/24 06:28:49;;;;;;;1.48;0.70;;;;;;;16.74;41.86;100591.50;4177674;28;20072;-44
2021/05/24 06:30:49;;;;;;;0.70;0.60;;;;;;;16.75;41.73;100595.94;4181269;28;20475;-45
2021/05/24 06:32:50;;;;;;;0.73;0.60;;;;;;;16.65;42.20;100591.19;4175202;28;20036;-46
2021/05/24 06:34:50;;;;;;;2.30;0.80;;;;;;;16.51;42.39;100596.38;4189401;28;20041;-49
2021/05/24 06:36:51;;;;;;;1.02;0.68;;;;;;;16.57;42.19;100594.44;4173226;28;20040;-48
2021/05/24 06:38:51;;;;;;;2.13;0.80;;;;;;;16.79;41.46;100598.97;4176621;28;20041;-44
2021/05/24 06:40:52;;;;;;;1.48;0.52;;;;;;;16.73;41.95;100595.38;4174986;28;20033;-48
2021/05/24 06:42:53;;;;;;;1.25;0.40;;;;;;;16.41;42.17;100571.44;4175945;28;20032;-45
2021/05/24 06:44:53;;;;;;;1.13;0.47;;;;;;;16.41;42.72;100598.25;4177357;28;20032;-44
2021/05/24 06:46:54;;;;;;;1.00;0.63;;;;;;;16.56;42.42;100595.56;4177525;28;20032;-47
2021/05/24 06:48:54;;;;;;;0.80;0.68;;;;;;;16.53;42.32;100599.69;4174314;28;20050;-46
2021/05/24 06:50:55;;;;;;;1.60;0.47;;;;;;;16.67;41.93;100600.03;4176284;28;20056;-48
2021/05/24 06:52:55;;;;;;;1.63;0.50;;;;;;;16.64;42.48;100585.91;4172447;28;20036;-48
2021/05/24 06:54:56;;;;;;;0.63;0.50;;;;;;;16.47;42.58;100598.00;4175981;28;20407;-46
2021/05/24 06:56:57;;;;;;;2.03;0.80;;;;;;;16.53;42.32;100602.44;4180651;28;20037;-48
2021/05/24 06:58:57;;;;;;;1.00;0.70;;;;;;;16.73;41.95;100596.19;4175586;28;20416;-46
2021/05/24 07:00:58;;;;;;;0.40;0.40;;;;;;;16.49;42.20;100587.50;4178988;28;20041;-46
2021/05/24 07:02:58;;;;;;;0.75;0.65;;;;;;;16.61;42.34;100609.38;4178100;28;20049;-44
2021/05/24 07:04:58;;;;;;;0.98;0.60;;;;;;;16.62;42.41;100597.25;4171179;28;20036;-46
2021/05/24 07:06:59;;;;;;;0.70;0.68;;;;;;;16.57;42.38;100594.44;4178063;28;20033;-45
2021/05/24 07:08:59;;;;;;;2.28;0.80;;;;;;;16.55;42.51;100591.94;4172612;28;20524;-47
2021/05/24 07:11:00;;;;;;;0.80;0.80;;;;;;;16.55;42.30;100594.69;4173601;28;20045;-48
2021/05/24 07:13:00;;;;;;;1.42;0.85;;;;;;;16.41;42.62;100584.44;4177596;28;20060;-45
2021/05/24 07:15:03;;;;;;;2.65;0.88;;;;;;;16.56;42.47;100592.78;4177222;28;20089;-46
2021/05/24 07:17:04;;;;;;;1.27;1.13;;;;;;;16.53;42.40;100582.28;4177593;28;20052;-46
2021/05/24 07:19:04;;;;;;;0.77;0.52;;;;;;;16.52;42.52;100586.13;4177633;28;20048;-46
2021/05/24 07:21:05;;;;;;;0.68;0.50;;;;;;;16.61;42.36;100595.56;4172767;28;20426;-47
2021/05/24 07:23:05;;;;;;;1.92;0.77;;;;;;;16.72;42.04;100589.00;4176501;28;20433;-46
2021/05/24 07:25:06;;;;;;;1.13;0.40;;;;;;;16.67;41.99;100582.63;4176342;28;20032;-50
2021/05/24 07:27:07;;;;;;;0.70;0.70;;;;;;;16.77;41.84;100585.44;4175916;28;20039;-46
2021/05/24 07:29:07;;;;;;;1.02;0.73;;;;;;;16.62;42.02;100580.66;4179502;28;21136;-47
2021/05/24 07:31:08;;;;;;;0.75;0.70;;;;;;;16.35;42.51;100578.84;4173452;28;20441;-50
2021/05/24 07:33:08;;;;;;;1.15;0.75;;;;;;;16.62;42.13;100586.19;4175135;28;20037;-49
2021/05/24 07:35:10;;;;;;;1.00;0.60;;;;;;;16.71;41.82;100586.50;4178098;28;20095;-46
2021/05/24 07:37:10;;;;;;;0.40;0.40;;;;;;;16.78;41.74;100577.97;4171427;28;20057;-50
2021/05/24 07:39:11;;;;;;;0.52;0.32;;;;;;;16.82;41.61;100582.69;4176580;28;20041;-47
2021/05/24 07:41:11;;;;;;;1.63;0.80;;;;;;;17.00;41.46;100578.56;4175342;28;20506;-47
2021/05/24 07:43:12;;;;;;;0.82;0.50;;;;;;;17.01;41.64;100582.19;4173872;28;20033;-47
2021/05/24 07:45:13;;;;;;;0.60;0.40;;;;;;;16.97;41.83;100586.59;4174872;28;20628;-47
2021/05/24 07:47:14;;;;;;;2.33;0.80;;;;;;;17.09;41.77;100588.00;4172849;28;20140;-47
2021/05/24 07:49:17;;;;;;;2.55;0.70;;;;;;;16.95;41.87;100584.09;4171340;28;20073;-47
2021/05/24 07:51:18;;;;;;;3.50;0.70;;;;;;;16.82;41.91;100556.97;4172880;28;20029;-50
2021/05/24 07:53:18;;;;;;;2.10;0.73;;;;;;;17.26;40.91;100578.63;4173299;28;20033;-46
2021/05/24 07:55:19;;;;;;;2.53;0.63;;;;;;;17.29;40.70;100581.69;4177208;28;20037;-45
2021/05/24 07:57:19;;;;;;;2.17;1.00;;;;;;;17.08;41.79;100572.50;4174572;28;20501;-46
2021/05/24 07:59:20;;;;;;;0.73;0.50;;;;;;;17.31;40.64;100577.81;4171335;28;20036;-47
2021/05/24 08:01:20;;;;;;;1.77;0.60;;;;;;;17.33;41.22;100583.88;4167988;28;20036;-46
2021/05/24 08:03:21;;;;;;;2.22;0.43;;;;;;;17.22;41.43;100581.09;4173966;28;20441;-47
2021/05/24 08:05:21;;;;;;;4.47;0.77;;;;;;;17.20;41.62;100579.72;4173106;28;20063;-49
2021/05/24 08:07:22;;;;;;;0.95;0.80;;;;;;;17.27;41.31;100581.13;4175551;28;20037;-49
2021/05/24 08:09:22;;;;;;;3.10;0.60;;;;;;;17.05;42.09;100580.53;4172382;28;20045;-50
2021/05/24 08:11:23;;;;;;;2.25;0.93;;;;;;;17.04;42.17;100582.47;4172827;28;20033;-47
2021/05/24 08:13:26;;;;;;;2.50;1.05;;;;;;;16.76;42.89;100586.53;4163254;28;20033;-50
2021/05/24 08:15:30;;;;;;;3.05;0.82;;;;;;;16.94;42.72;100576.91;4172774;28;20187;-53
2021/05/24 08:17:30;;;;;;;1.25;0.80;;;;;;;16.99;42.75;100584.38;4176070;28;20033;-48
2021/05/24 08:19:31;;;;;;;5.75;1.15;;;;;;;16.92;43.05;100579.13;4172198;28;20056;-49
2021/05/24 08:21:32;;;;;;;1.70;0.98;;;;;;;16.92;42.88;100582.72;4172740;28;20468;-49
2021/05/24 08:23:33;;;;;;;2.33;1.10;;;;;;;16.99;43.23;100590.75;4172707;28;20562;-47
2021/05/24 08:25:33;;;;;;;5.95;1.00;;;;;;;17.05;43.33;100575.00;4171286;28;20452;-46
2021/05/24 08:27:35;;;;;;;7.07;0.93;;;;;;;17.03;43.25;100579.97;4168460;28;20021;-46
2021/05/24 08:29:35;;;;;;;4.22;1.10;;;;;;;16.94;43.44;100579.66;4171843;28;20153;-47
2021/05/24 08:31:37;;;;;;;4.60;0.80;;;;;;;17.07;43.25;100579.16;4173045;28;20411;-49
2021/05/24 08:33:37;;;;;;;6.65;0.93;;;;;;;17.07;43.26;100576.41;4174729;28;20029;-48
2021/05/24 08:35:38;;;;;;;6.07;1.52;;;;;;;17.03;43.21;100577.22;4173695;28;20728;-46
2021/05/24 08:37:38;;;;;;;2.50;0.90;;;;;;;17.28;42.59;100584.72;4173304;28;20025;-42
2021/05/24 08:39:40;;;;;;;8.32;0.90;;;;;;;17.10;43.16;100575.00;4169422;28;20037;-46
2021/05/24 08:41:41;;;;;;;3.05;1.27;;;;;;;17.00;43.40;100567.53;4174111;28;20028;-45
2021/05/24 08:43:42;;;;;;;2.88;1.13;;;;;;;17.26;42.28;100562.03;4173767;28;20044;-48
2021/05/24 08:45:43;;;;;;;3.00;0.90;;;;;;;16.99;43.63;100568.66;4165978;28;20044;-45
2021/05/24 08:47:44;;;;;;;2.03;0.90;;;;;;;17.23;42.62;100574.47;4172282;28;20048;-46
2021/05/24 08:49:45;;;;;;;5.72;1.20;;;;;;;17.30;42.43;100574.19;4170037;28;20367;-45
2021/05/24 08:51:45;;;;;;;3.00;0.65;;;;;;;17.03;43.01;100579.97;4173009;28;20040;-48
2021/05/24 08:53:46;;;;;;;5.82;1.00;;;;;;;17.39;42.17;100580.84;4170076;28;20028;-47
2021/05/24 08:55:47;;;;;;;1.15;0.75;;;;;;;16.97;43.18;100587.41;4174377;28;20086;-52
2021/05/24 08:57:48;;;;;;;3.22;1.05;;;;;;;17.19;42.88;100584.41;4157227;28;20033;-51
2021/05/24 08:59:48;;;;;;;3.60;1.00;;;;;;;16.95;43.43;100583.28;4173817;28;20029;-50
2021/05/24 09:01:49;;;;;;;1.40;1.15;;;;;;;17.17;43.04;100591.34;4173175;28;20064;-51
2021/05/24 09:04:01;;;;;;;4.93;1.20;;;;;;;17.38;42.80;100583.88;4153365;28;20507;-47
2021/05/24 09:06:07;;;;;;;6.45;1.15;;;;;;;17.35;43.38;100590.81;4174602;28;20025;-46
2021/05/24 09:08:07;;;;;;;5.70;0.90;;;;;;;17.53;43.11;100572.84;4171231;28;20033;-46
2021/05/24 09:10:09;;;;;;;6.10;1.20;;;;;;;17.57;43.11;100581.47;4168766;28;20091;-48
2021/05/24 09:12:20;;;;;;;7.07;1.35;;;;;;;17.65;43.47;100583.66;4173148;28;20106;-51
2021/05/24 09:14:25;;;;;;;4.68;1.30;;;;;;;17.60;43.29;100586.44;4170969;28;20124;-49
2021/05/24 09:16:31;;;;;;;3.95;0.80;;;;;;;17.67;42.96;100583.38;4171682;28;20360;-47
2021/05/24 09:18:31;;;;;;;4.97;0.93;;;;;;;17.57;43.79;100573.16;4172709;28;20068;-51
2021/05/24 09:20:38;;;;;;;3.25;1.00;;;;;;;17.74;42.86;100573.69;4171809;28;20029;-47
2021/05/24 09:22:38;;;;;;;6.32;0.98;;;;;;;17.87;42.65;100588.06;4170743;28;20068;-48
2021/05/24 09:24:43;;;;;;;3.30;1.15;;;;;;;17.76;43.69;100588.06;4173941;28;20045;-50
2021/05/24 09:26:44;;;;;;;2.35;0.80;;;;;;;17.92;42.64;100588.06;4173320;28;20044;-46